Azalea, Virginia
Current Conditions -  °F | °C
As of 11:27 PM on Tuesday 21 Oct 2014 (Local Time) from KOFP Reporting Station
Broken Clouds Broken Clouds  
Wind Chill: 12°   Ceiling: 1500
Heat Index: 12°   Visibility: 10mi
Dew Point: 10°   Wind: 7mph
Humidity: 86%   Direction: 340°NNW
Pressure: 29.92"   Gusts: NA
Location:  37.619°N, 77.441°W
Report Text: KOFP 220327Z AUTO 34006KT 10SM BKN015 BKN120 12/10 A2992 RMK AO2 T01220100
Loading
Personal Weather Stations






























Interactive Weather Map
Tropical Storm Tracking
New forecast layout! Learn more

10-Day Weather Forecast

Advertisements
Track Severe Weather on mobile